Check out our new BloomSky Weather System.

Active alerts


No alerts


Thunder radar  blitzortung!


Rain radar more information rain snow radar


Visit our other weather sites:

Template documentation
and downloads

And another site



Weather Underground History page Text

Daily Summary for September 4, 2017 Units:  English    Metric   Both
« Previous Day
Next Day »
Daily Weekly Monthly Yearly Custom
  High: Low: Average:
Temperature: 91.6 °F 70.5 °F 81.5 °F
Dew Point: 77.0 °F 70.0 °F 73.4 °F
Humidity: 99 % 56 % 78 %
Wind Speed: 8.0 mph 0.0 mph 1.3 mph
Wind Gust: 9.0 mph - -
Wind:- - SE
Pressure: 30.05 in 29.93 in -
Precipitation: 0.00 in    
Historical Graphs
 
 
Tabular Data for September 4, 2017
Time Temperature Dew Point Pressure Wind Wind Speed Wind Gust Humidity Rainfall Rate (Hourly)
00:04 77.9 °F 73.0 °F 30.04 in Calm   1.0 mph 85 % 0.00 in
00:09 77.7 °F 72.9 °F 30.04 in Calm   1.0 mph 85 % 0.00 in
00:14 77.5 °F 72.7 °F 30.04 in Calm   1.0 mph 85 % 0.00 in
00:19 77.4 °F 72.9 °F 30.04 in Calm     86 % 0.00 in
00:24 77.2 °F 72.7 °F 30.04 in Calm     86 % 0.00 in
00:29 76.8 °F 72.3 °F 30.04 in Calm     86 % 0.00 in
00:34 76.6 °F 72.5 °F 30.03 in Calm     87 % 0.00 in
00:39 76.5 °F 72.3 °F 30.03 in Calm     87 % 0.00 in
00:44 76.3 °F 72.5 °F 30.03 in Calm     88 % 0.00 in
00:49 76.3 °F 72.5 °F 30.03 in Calm     88 % 0.00 in
00:54 76.3 °F 72.9 °F 30.03 in Calm     89 % 0.00 in
00:59 76.1 °F 72.3 °F 30.03 in Calm     88 % 0.00 in
01:04 75.9 °F 72.1 °F 30.03 in Calm     88 % 0.00 in
01:09 75.7 °F 72.3 °F 30.03 in Calm     89 % 0.00 in
01:15 75.6 °F 72.1 °F 30.03 in Calm     89 % 0.00 in
01:20 75.4 °F 72.3 °F 30.02 in Calm     90 % 0.00 in
01:25 75.4 °F 72.5 °F 30.02 in Calm     91 % 0.00 in
01:30 75.4 °F 72.5 °F 30.02 in Calm     91 % 0.00 in
01:35 75.2 °F 72.3 °F 30.02 in Calm     91 % 0.00 in
01:40 75.0 °F 72.1 °F 30.02 in Calm     91 % 0.00 in
01:45 74.8 °F 72.0 °F 30.02 in Calm     91 % 0.00 in
01:50 74.8 °F 72.3 °F 30.02 in Calm     92 % 0.00 in
01:55 74.8 °F 72.3 °F 30.02 in Calm     92 % 0.00 in
02:00 74.8 °F 72.3 °F 30.02 in Calm   1.0 mph 92 % 0.00 in
02:05 74.7 °F 72.1 °F 30.02 in Calm   1.0 mph 92 % 0.00 in
02:10 74.5 °F 72.0 °F 30.02 in Calm   1.0 mph 92 % 0.00 in
02:15 74.5 °F 72.0 °F 30.02 in Calm     92 % 0.00 in
02:20 74.1 °F 71.6 °F 30.02 in Calm     92 % 0.00 in
02:25 74.1 °F 72.0 °F 30.02 in Calm     93 % 0.00 in
02:30 73.9 °F 71.8 °F 30.01 in Calm     93 % 0.00 in
02:35 73.8 °F 72.0 °F 30.01 in Calm     94 % 0.00 in
02:40 73.8 °F 72.0 °F 30.01 in Calm     94 % 0.00 in
02:45 73.6 °F 71.8 °F 30.01 in Calm     94 % 0.00 in
02:50 73.6 °F 71.8 °F 30.01 in Calm     94 % 0.00 in
02:55 73.4 °F 71.6 °F 30.01 in Calm     94 % 0.00 in
03:00 73.2 °F 71.4 °F 30.01 in Calm     94 % 0.00 in
03:05 73.0 °F 71.2 °F 30.01 in Calm     94 % 0.00 in
03:10 72.9 °F 71.4 °F 30.01 in Calm     95 % 0.00 in
03:15 72.7 °F 71.2 °F 30.01 in Calm     95 % 0.00 in
03:20 72.7 °F 71.2 °F 30.01 in Calm     95 % 0.00 in
03:25 72.7 °F 71.2 °F 30.01 in Calm     95 % 0.00 in
03:30 72.7 °F 71.4 °F 30.01 in Calm     96 % 0.00 in
03:35 72.7 °F 71.4 °F 30.01 in Calm     96 % 0.00 in
03:40 72.5 °F 71.2 °F 30.00 in Calm     96 % 0.00 in
03:45 72.5 °F 71.2 °F 30.00 in Calm     96 % 0.00 in
03:50 72.3 °F 71.1 °F 30.00 in Calm     96 % 0.00 in
03:55 72.3 °F 71.1 °F 30.00 in Calm     96 % 0.00 in
04:00 72.1 °F 70.9 °F 30.00 in Calm     96 % 0.00 in
04:06 72.1 °F 70.9 °F 30.00 in Calm     96 % 0.00 in
04:11 72.1 °F 71.2 °F 30.00 in Calm     97 % 0.00 in
04:16 72.1 °F 71.2 °F 30.00 in Calm     97 % 0.00 in
04:21 72.1 °F 71.2 °F 30.00 in Calm     97 % 0.00 in
04:26 72.1 °F 71.2 °F 30.00 in Calm   1.0 mph 97 % 0.00 in
04:31 72.1 °F 71.2 °F 30.00 in Calm   1.0 mph 97 % 0.00 in
04:36 72.0 °F 71.1 °F 30.00 in Calm   1.0 mph 97 % 0.00 in
04:41 72.0 °F 71.1 °F 30.00 in Calm     97 % 0.00 in
04:46 71.8 °F 70.9 °F 30.00 in Calm     97 % 0.00 in
04:51 71.6 °F 70.7 °F 30.00 in Calm     97 % 0.00 in
04:56 71.6 °F 70.7 °F 30.00 in Calm     97 % 0.00 in
05:01 71.4 °F 70.5 °F 30.00 in Calm     97 % 0.00 in
05:06 71.2 °F 70.3 °F 30.00 in Calm     97 % 0.00 in
05:11 71.1 °F 70.2 °F 30.00 in Calm     97 % 0.00 in
05:16 71.1 °F 70.5 °F 30.00 in Calm     98 % 0.00 in
05:21 71.1 °F 70.5 °F 30.00 in Calm     98 % 0.00 in
05:26 71.2 °F 70.7 °F 30.00 in Calm   1.0 mph 98 % 0.00 in
05:31 71.2 °F 70.7 °F 30.00 in Calm   1.0 mph 98 % 0.00 in
05:36 71.2 °F 70.7 °F 30.00 in Calm   1.0 mph 98 % 0.00 in
05:41 71.2 °F 70.7 °F 30.01 in Calm     98 % 0.00 in
05:46 71.2 °F 70.7 °F 30.01 in Calm     98 % 0.00 in
05:51 71.1 °F 70.5 °F 30.01 in Calm     98 % 0.00 in
05:57 71.1 °F 70.5 °F 30.01 in Calm     98 % 0.00 in
06:02 71.1 °F 70.5 °F 30.01 in Calm     98 % 0.00 in
06:07 71.1 °F 70.5 °F 30.01 in Calm     98 % 0.00 in
06:12 70.9 °F 70.3 °F 30.01 in Calm     98 % 0.00 in
06:17 70.9 °F 70.3 °F 30.01 in Calm     98 % 0.00 in
06:22 70.7 °F 70.2 °F 30.01 in Calm     98 % 0.00 in
06:27 70.5 °F 70.0 °F 30.01 in Calm     98 % 0.00 in
06:32 70.5 °F 70.0 °F 30.02 in Calm     98 % 0.00 in
06:37 70.7 °F 70.2 °F 30.02 in Calm     98 % 0.00 in
06:42 70.9 °F 70.5 °F 30.02 in Calm   1.0 mph 99 % 0.00 in
06:47 70.9 °F 70.5 °F 30.02 in Calm   1.0 mph 99 % 0.00 in
06:52 70.9 °F 70.5 °F 30.02 in Calm   1.0 mph 99 % 0.00 in
06:57 70.9 °F 70.5 °F 30.02 in Calm     99 % 0.00 in
07:02 71.1 °F 70.7 °F 30.02 in Calm     99 % 0.00 in
07:07 71.1 °F 70.7 °F 30.02 in Calm     99 % 0.00 in
07:12 70.9 °F 70.3 °F 30.03 in Calm     98 % 0.00 in
07:17 71.1 °F 70.5 °F 30.03 in Calm     98 % 0.00 in
07:22 71.1 °F 70.7 °F 30.03 in Calm     99 % 0.00 in
07:27 71.1 °F 70.7 °F 30.03 in Calm     99 % 0.00 in
07:32 71.2 °F 70.9 °F 30.03 in Calm     99 % 0.00 in
07:37 71.4 °F 71.1 °F 30.03 in Calm     99 % 0.00 in
07:42 71.4 °F 71.1 °F 30.03 in Calm     99 % 0.00 in
07:47 71.8 °F 71.4 °F 30.03 in Calm     99 % 0.00 in
07:52 72.0 °F 71.6 °F 30.03 in Calm     99 % 0.00 in
07:57 72.1 °F 71.8 °F 30.03 in Calm   1.0 mph 99 % 0.00 in
08:02 72.3 °F 72.0 °F 30.04 in Calm   1.0 mph 99 % 0.00 in
08:07 72.7 °F 72.3 °F 30.03 in Calm   1.0 mph 99 % 0.00 in
08:12 73.0 °F 72.7 °F 30.04 in Calm   1.0 mph 99 % 0.00 in
08:17 73.8 °F 73.4 °F 30.04 in Calm   1.0 mph 99 % 0.00 in
08:22 74.7 °F 74.3 °F 30.04 in Calm   1.0 mph 99 % 0.00 in
08:27 75.6 °F 75.2 °F 30.04 in Calm   1.0 mph 99 % 0.00 in
08:32 76.5 °F 75.9 °F 30.04 in Calm   1.0 mph 98 % 0.00 in
08:37 77.0 °F 76.1 °F 30.04 in Calm   1.0 mph 97 % 0.00 in
08:42 77.9 °F 76.6 °F 30.04 in Calm   1.0 mph 96 % 0.00 in
08:47 78.6 °F 76.8 °F 30.04 in Calm   1.0 mph 94 % 0.00 in
08:52 79.2 °F 75.9 °F 30.04 in Calm   2.0 mph 90 % 0.00 in
08:57 79.3 °F 75.7 °F 30.04 in Calm   2.0 mph 89 % 0.00 in
09:02 79.9 °F 76.3 °F 30.05 in Calm   2.0 mph 89 % 0.00 in
09:07 80.8 °F 76.3 °F 30.05 in East 2.0 mph 2.0 mph 86 % 0.00 in
09:12 81.1 °F 76.5 °F 30.05 in Calm   3.0 mph 86 % 0.00 in
09:17 81.7 °F 76.3 °F 30.05 in ENE 1.0 mph 3.0 mph 84 % 0.00 in
09:22 82.0 °F 75.9 °F 30.05 in ESE 1.0 mph 3.0 mph 82 % 0.00 in
09:27 81.9 °F 75.7 °F 30.05 in SE 1.0 mph 4.0 mph 82 % 0.00 in
09:32 82.4 °F 76.3 °F 30.05 in NW 1.0 mph 4.0 mph 82 % 0.00 in
09:37 82.9 °F 76.5 °F 30.05 in Calm   4.0 mph 81 % 0.00 in
09:42 83.7 °F 76.5 °F 30.05 in North 1.0 mph 3.0 mph 79 % 0.00 in
09:47 84.4 °F 76.5 °F 30.05 in NE 1.0 mph 3.0 mph 77 % 0.00 in
09:48 84.4 °F 76.5 °F 30.05 in NE 1.0 mph 3.0 mph 77 % 0.00 in
09:53 84.9 °F 76.5 °F 30.05 in ENE 1.0 mph 3.0 mph 76 % 0.00 in
09:58 85.1 °F 76.6 °F 30.05 in Calm   3.0 mph 76 % 0.00 in
10:03 85.5 °F 76.6 °F 30.05 in Calm   4.0 mph 75 % 0.00 in
10:08 84.7 °F 75.9 °F 30.05 in Calm   4.0 mph 75 % 0.00 in
10:13 84.9 °F 76.1 °F 30.05 in Calm   4.0 mph 75 % 0.00 in
10:18 84.7 °F 75.6 °F 30.05 in NW 1.0 mph 3.0 mph 74 % 0.00 in
10:23 84.9 °F 76.1 °F 30.05 in Calm   3.0 mph 75 % 0.00 in
10:28 85.8 °F 77.0 °F 30.05 in NNW 1.0 mph 4.0 mph 75 % 0.00 in
10:33 86.2 °F 76.1 °F 30.05 in East 2.0 mph 4.0 mph 72 % 0.00 in
10:38 85.5 °F 75.4 °F 30.05 in Calm   4.0 mph 72 % 0.00 in
10:43 85.3 °F 76.1 °F 30.05 in Calm   4.0 mph 74 % 0.00 in
10:48 85.5 °F 75.7 °F 30.05 in Calm   4.0 mph 73 % 0.00 in
10:53 85.6 °F 75.9 °F 30.05 in ENE 1.0 mph 2.0 mph 73 % 0.00 in
10:58 85.8 °F 75.7 °F 30.05 in ESE 2.0 mph 3.0 mph 72 % 0.00 in
11:03 85.5 °F 75.4 °F 30.05 in NE 3.0 mph 4.0 mph 72 % 0.00 in
11:08 85.1 °F 75.4 °F 30.05 in Calm   4.0 mph 73 % 0.00 in
11:13 85.8 °F 75.7 °F 30.05 in NNW 2.0 mph 4.0 mph 72 % 0.00 in
11:18 86.5 °F 75.9 °F 30.05 in SE 3.0 mph 3.0 mph 71 % 0.00 in
11:22 86.9 °F 75.6 °F 30.05 in ESE 2.0 mph 6.0 mph 69 % 0.00 in
11:27 87.1 °F 75.2 °F 30.05 in Calm   6.0 mph 68 % 0.00 in
11:32 87.6 °F 75.4 °F 30.05 in SSW 3.0 mph 6.0 mph 67 % 0.00 in
11:37 87.6 °F 74.3 °F 30.05 in East 3.0 mph 5.0 mph 65 % 0.00 in
11:42 87.1 °F 75.2 °F 30.04 in Calm   5.0 mph 68 % 0.00 in
11:47 88.0 °F 75.2 °F 30.04 in SE 2.0 mph 5.0 mph 66 % 0.00 in
11:52 88.2 °F 74.5 °F 30.04 in SSE 2.0 mph 6.0 mph 64 % 0.00 in
11:57 88.9 °F 76.1 °F 30.04 in SSE 3.0 mph 6.0 mph 66 % 0.00 in
12:02 89.6 °F 74.3 °F 30.04 in SSE 3.0 mph 6.0 mph 61 % 0.00 in
12:07 89.8 °F 75.0 °F 30.04 in East 8.0 mph 8.0 mph 62 % 0.00 in
12:12 89.1 °F 75.7 °F 30.04 in ENE 2.0 mph 8.0 mph 65 % 0.00 in
12:17 89.2 °F 75.0 °F 30.04 in East 3.0 mph 8.0 mph 63 % 0.00 in
12:22 89.2 °F 74.5 °F 30.04 in ESE 4.0 mph 8.0 mph 62 % 0.00 in
12:27 89.1 °F 73.4 °F 30.04 in Calm   7.0 mph 60 % 0.00 in
12:32 89.1 °F 75.2 °F 30.03 in North 1.0 mph 6.0 mph 64 % 0.00 in
12:37 89.4 °F 74.7 °F 30.03 in South 3.0 mph 7.0 mph 62 % 0.00 in
12:42 89.4 °F 74.7 °F 30.03 in East 2.0 mph 8.0 mph 62 % 0.00 in
12:47 89.8 °F 74.1 °F 30.03 in East 3.0 mph 8.0 mph 60 % 0.00 in
12:52 89.8 °F 74.5 °F 30.03 in SE 6.0 mph 8.0 mph 61 % 0.00 in
12:57 89.1 °F 74.3 °F 30.03 in Calm   7.0 mph 62 % 0.00 in
13:02 89.2 °F 74.5 °F 30.03 in SSW 3.0 mph 9.0 mph 62 % 0.00 in
13:07 89.4 °F 74.7 °F 30.03 in ESE 1.0 mph 9.0 mph 62 % 0.00 in
13:12 90.0 °F 75.7 °F 30.02 in Calm   9.0 mph 63 % 0.00 in
13:17 90.3 °F 74.5 °F 30.02 in NE 4.0 mph 6.0 mph 60 % 0.00 in
13:22 90.1 °F 75.4 °F 30.02 in NW 2.0 mph 6.0 mph 62 % 0.00 in
13:27 90.3 °F 75.0 °F 30.02 in NW 2.0 mph 6.0 mph 61 % 0.00 in
13:32 89.8 °F 74.1 °F 30.01 in East 1.0 mph 4.0 mph 60 % 0.00 in
13:37 89.2 °F 72.5 °F 30.01 in East 2.0 mph 4.0 mph 58 % 0.00 in
13:38 89.2 °F 72.5 °F 30.01 in ESE 3.0 mph 4.0 mph 58 % 0.00 in
13:43 89.2 °F 73.6 °F 30.01 in Calm   4.0 mph 60 % 0.00 in
13:48 90.1 °F 74.8 °F 30.01 in East 3.0 mph 5.0 mph 61 % 0.00 in
13:53 90.0 °F 74.1 °F 30.00 in SE 3.0 mph 8.0 mph 60 % 0.00 in
13:58 89.2 °F 73.9 °F 30.00 in ENE 1.0 mph 8.0 mph 61 % 0.00 in
14:03 89.1 °F 73.9 °F 30.00 in ENE 1.0 mph 8.0 mph 61 % 0.00 in
14:08 89.1 °F 73.9 °F 29.99 in NNE 2.0 mph 5.0 mph 61 % 0.00 in
14:13 88.9 °F 74.1 °F 29.99 in ENE 1.0 mph 5.0 mph 62 % 0.00 in
14:18 89.4 °F 75.2 °F 29.99 in East 4.0 mph 7.0 mph 63 % 0.00 in
14:24 90.1 °F 75.4 °F 29.99 in SE 2.0 mph 7.0 mph 62 % 0.00 in
14:29 90.7 °F 75.4 °F 29.98 in Calm   7.0 mph 61 % 0.00 in
14:34 91.0 °F 75.7 °F 29.98 in East 2.0 mph 5.0 mph 61 % 0.00 in
14:39 91.2 °F 75.4 °F 29.98 in NNW 3.0 mph 8.0 mph 60 % 0.00 in
14:44 91.2 °F 74.3 °F 29.98 in SE 1.0 mph 8.0 mph 58 % 0.00 in
14:49 91.0 °F 74.1 °F 29.98 in ESE 4.0 mph 8.0 mph 58 % 0.00 in
14:54 91.0 °F 75.2 °F 29.97 in Calm   5.0 mph 60 % 0.00 in
14:59 91.6 °F 75.2 °F 29.97 in SSE 3.0 mph 8.0 mph 59 % 0.00 in
15:04 91.2 °F 73.8 °F 29.97 in SE 2.0 mph 8.0 mph 57 % 0.00 in
15:09 90.9 °F 75.0 °F 29.97 in East 4.0 mph 8.0 mph 60 % 0.00 in
15:14 90.3 °F 75.0 °F 29.97 in Calm   8.0 mph 61 % 0.00 in
15:19 90.7 °F 73.9 °F 29.96 in East 1.0 mph 8.0 mph 58 % 0.00 in
15:24 90.5 °F 73.2 °F 29.96 in ENE 3.0 mph 4.0 mph 57 % 0.00 in
15:29 90.3 °F 74.5 °F 29.96 in NW 1.0 mph 5.0 mph 60 % 0.00 in
15:34 90.5 °F 74.1 °F 29.95 in East 2.0 mph 5.0 mph 59 % 0.00 in
15:39 91.0 °F 74.7 °F 29.95 in ESE 1.0 mph 5.0 mph 59 % 0.00 in
15:44 91.0 °F 73.8 °F 29.95 in East 1.0 mph 6.0 mph 57 % 0.00 in
15:49 90.9 °F 74.1 °F 29.95 in South 3.0 mph 6.0 mph 58 % 0.00 in
15:54 90.5 °F 73.8 °F 29.95 in North 1.0 mph 6.0 mph 58 % 0.00 in
15:59 90.5 °F 74.7 °F 29.95 in NNE 2.0 mph 6.0 mph 60 % 0.00 in
16:04 90.9 °F 74.5 °F 29.94 in NNE 1.0 mph 6.0 mph 59 % 0.00 in
16:09 90.9 °F 74.1 °F 29.94 in ENE 1.0 mph 6.0 mph 58 % 0.00 in
16:14 91.0 °F 73.2 °F 29.94 in SE 3.0 mph 6.0 mph 56 % 0.00 in
16:19 90.9 °F 73.6 °F 29.94 in Calm   8.0 mph 57 % 0.00 in
16:24 91.2 °F 73.4 °F 29.94 in Calm   8.0 mph 56 % 0.00 in
16:29 91.0 °F 73.2 °F 29.94 in South 1.0 mph 8.0 mph 56 % 0.00 in
16:34 90.9 °F 73.6 °F 29.94 in NW 1.0 mph 6.0 mph 57 % 0.00 in
16:39 91.4 °F 73.9 °F 29.94 in Calm   6.0 mph 57 % 0.00 in
16:44 91.6 °F 75.2 °F 29.94 in NE 1.0 mph 5.0 mph 59 % 0.00 in
16:49 91.6 °F 74.1 °F 29.94 in SE 5.0 mph 5.0 mph 57 % 0.00 in
16:54 91.2 °F 73.8 °F 29.94 in Calm   7.0 mph 57 % 0.00 in
16:59 91.2 °F 73.8 °F 29.93 in East 1.0 mph 7.0 mph 57 % 0.00 in
17:04 90.9 °F 73.6 °F 29.93 in East 1.0 mph 7.0 mph 57 % 0.00 in
17:09 90.5 °F 74.1 °F 29.94 in ESE 3.0 mph 6.0 mph 59 % 0.00 in
17:14 90.0 °F 73.8 °F 29.94 in East 3.0 mph 6.0 mph 59 % 0.00 in
17:19 89.6 °F 73.4 °F 29.94 in East 4.0 mph 6.0 mph 59 % 0.00 in
17:24 89.2 °F 73.0 °F 29.94 in ESE 5.0 mph 6.0 mph 59 % 0.00 in
17:29 89.1 °F 73.4 °F 29.94 in East 2.0 mph 6.0 mph 60 % 0.00 in
17:34 88.9 °F 73.8 °F 29.94 in SSE 4.0 mph 6.0 mph 61 % 0.00 in
17:39 88.7 °F 73.9 °F 29.94 in East 2.0 mph 6.0 mph 62 % 0.00 in
17:45 88.5 °F 74.3 °F 29.94 in East 3.0 mph 6.0 mph 63 % 0.00 in
17:49 88.5 °F 73.8 °F 29.94 in ESE 3.0 mph 6.0 mph 62 % 0.00 in
17:55 88.9 °F 74.7 °F 29.94 in ESE 6.0 mph 6.0 mph 63 % 0.00 in
17:59 88.9 °F 74.1 °F 29.94 in East 5.0 mph 9.0 mph 62 % 0.00 in
18:05 88.9 °F 74.7 °F 29.94 in SSE 4.0 mph 9.0 mph 63 % 0.00 in
18:10 88.9 °F 74.1 °F 29.94 in ENE 3.0 mph 9.0 mph 62 % 0.00 in
18:15 88.5 °F 74.3 °F 29.94 in SE 2.0 mph 9.0 mph 63 % 0.00 in
18:20 88.3 °F 74.7 °F 29.94 in ESE 4.0 mph 7.0 mph 64 % 0.00 in
18:25 88.0 °F 74.7 °F 29.94 in ESE 2.0 mph 8.0 mph 65 % 0.00 in
18:30 88.0 °F 75.2 °F 29.93 in SE 5.0 mph 8.0 mph 66 % 0.00 in
18:35 87.6 °F 74.8 °F 29.93 in SE 3.0 mph 8.0 mph 66 % 0.00 in
18:40 87.4 °F 75.2 °F 29.93 in SSE 4.0 mph 7.0 mph 67 % 0.00 in
18:45 87.1 °F 74.8 °F 29.93 in SSE 6.0 mph 7.0 mph 67 % 0.00 in
18:50 86.7 °F 74.8 °F 29.93 in SE 3.0 mph 7.0 mph 68 % 0.00 in
18:55 86.5 °F 74.7 °F 29.93 in SSE 3.0 mph 6.0 mph 68 % 0.00 in
19:00 86.4 °F 74.5 °F 29.93 in ESE 3.0 mph 7.0 mph 68 % 0.00 in
19:05 86.0 °F 74.7 °F 29.93 in South 4.0 mph 7.0 mph 69 % 0.00 in
19:10 85.6 °F 73.9 °F 29.93 in SE 4.0 mph 7.0 mph 68 % 0.00 in
19:15 85.6 °F 74.3 °F 29.93 in SE 5.0 mph 7.0 mph 69 % 0.00 in
19:20 85.5 °F 74.1 °F 29.94 in ESE 4.0 mph 7.0 mph 69 % 0.00 in
19:25 85.3 °F 73.9 °F 29.94 in SE 2.0 mph 8.0 mph 69 % 0.00 in
19:30 85.3 °F 73.9 °F 29.94 in South 3.0 mph 8.0 mph 69 % 0.00 in
19:35 85.1 °F 73.8 °F 29.94 in SSE 3.0 mph 8.0 mph 69 % 0.00 in
19:40 84.9 °F 73.6 °F 29.94 in ENE 4.0 mph 6.0 mph 69 % 0.00 in
19:45 84.9 °F 73.6 °F 29.94 in ESE 1.0 mph 6.0 mph 69 % 0.00 in
19:50 84.9 °F 73.6 °F 29.94 in ESE 2.0 mph 6.0 mph 69 % 0.00 in
19:55 84.7 °F 73.4 °F 29.94 in ESE 2.0 mph 5.0 mph 69 % 0.00 in
20:00 84.6 °F 73.2 °F 29.94 in SSE 2.0 mph 5.0 mph 69 % 0.00 in
20:05 84.6 °F 73.2 °F 29.94 in ESE 2.0 mph 5.0 mph 69 % 0.00 in
20:10 84.6 °F 73.2 °F 29.94 in East 2.0 mph 5.0 mph 69 % 0.00 in
20:15 84.4 °F 73.6 °F 29.94 in SSE 3.0 mph 5.0 mph 70 % 0.00 in
20:20 84.4 °F 73.6 °F 29.94 in SE 1.0 mph 6.0 mph 70 % 0.00 in
20:25 84.4 °F 73.6 °F 29.94 in ESE 1.0 mph 6.0 mph 70 % 0.00 in
20:30 84.0 °F 73.2 °F 29.94 in East 3.0 mph 6.0 mph 70 % 0.00 in
20:35 84.0 °F 73.2 °F 29.94 in SE 1.0 mph 5.0 mph 70 % 0.00 in
20:40 83.8 °F 73.0 °F 29.95 in SE 2.0 mph 5.0 mph 70 % 0.00 in
20:50 83.5 °F 72.7 °F 29.95 in East 3.0 mph 5.0 mph 70 % 0.00 in
20:55 83.5 °F 72.7 °F 29.95 in ESE 4.0 mph 6.0 mph 70 % 0.00 in
21:00 83.5 °F 72.7 °F 29.95 in ESE 2.0 mph 6.0 mph 70 % 0.00 in
21:05 83.3 °F 72.5 °F 29.96 in SE 2.0 mph 6.0 mph 70 % 0.00 in
21:10 83.3 °F 72.9 °F 29.96 in SE 2.0 mph 5.0 mph 71 % 0.00 in
21:15 83.1 °F 72.7 °F 29.96 in East 3.0 mph 6.0 mph 71 % 0.00 in
21:20 83.1 °F 73.2 °F 29.96 in SE 3.0 mph 6.0 mph 72 % 0.00 in
21:25 83.1 °F 73.2 °F 29.96 in South 3.0 mph 6.0 mph 72 % 0.00 in
21:30 82.9 °F 73.0 °F 29.96 in SE 4.0 mph 6.0 mph 72 % 0.00 in
21:35 82.8 °F 73.2 °F 29.97 in SE 3.0 mph 7.0 mph 73 % 0.00 in
21:40 82.6 °F 73.0 °F 29.97 in SSE 2.0 mph 7.0 mph 73 % 0.00 in
21:46 82.2 °F 73.0 °F 29.97 in SSE 2.0 mph 7.0 mph 74 % 0.00 in
21:51 82.0 °F 72.9 °F 29.97 in SE 3.0 mph 6.0 mph 74 % 0.00 in
21:56 81.9 °F 72.7 °F 29.97 in South 3.0 mph 5.0 mph 74 % 0.00 in
22:01 81.9 °F 73.2 °F 29.97 in SE 2.0 mph 5.0 mph 75 % 0.00 in
22:06 81.7 °F 73.0 °F 29.97 in SE 1.0 mph 5.0 mph 75 % 0.00 in
22:11 81.7 °F 73.4 °F 29.97 in SSE 2.0 mph 5.0 mph 76 % 0.00 in
22:16 81.5 °F 73.2 °F 29.97 in SE 3.0 mph 5.0 mph 76 % 0.00 in
22:21 81.3 °F 73.4 °F 29.98 in SSE 1.0 mph 5.0 mph 77 % 0.00 in
22:23 81.3 °F 73.4 °F 29.98 in SE 2.0 mph 5.0 mph 77 % 0.00 in
22:28 81.1 °F 73.6 °F 29.97 in SE 5.0 mph 5.0 mph 78 % 0.00 in
22:33 81.0 °F 73.8 °F 29.97 in SSE 3.0 mph 5.0 mph 79 % 0.00 in
22:38 81.0 °F 73.8 °F 29.97 in SE 2.0 mph 5.0 mph 79 % 0.00 in
22:44 80.8 °F 73.6 °F 29.97 in SE 3.0 mph 5.0 mph 79 % 0.00 in
22:49 80.4 °F 73.8 °F 29.97 in SSW 1.0 mph 5.0 mph 80 % 0.00 in
22:54 80.2 °F 73.9 °F 29.97 in ESE 2.0 mph 4.0 mph 81 % 0.00 in
22:59 80.1 °F 73.8 °F 29.98 in SSE 2.0 mph 4.0 mph 81 % 0.00 in
23:04 79.9 °F 73.9 °F 29.97 in SSE 2.0 mph 4.0 mph 82 % 0.00 in
23:09 79.7 °F 73.8 °F 29.98 in SE 1.0 mph 4.0 mph 82 % 0.00 in
23:14 79.5 °F 73.9 °F 29.97 in SE 1.0 mph 4.0 mph 83 % 0.00 in
23:19 79.3 °F 73.8 °F 29.97 in Calm   2.0 mph 83 % 0.00 in
23:24 79.2 °F 73.6 °F 29.97 in Calm   2.0 mph 83 % 0.00 in
23:29 78.8 °F 73.6 °F 29.98 in Calm   2.0 mph 84 % 0.00 in
23:34 78.6 °F 73.8 °F 29.98 in Calm   1.0 mph 85 % 0.00 in
23:39 78.4 °F 73.6 °F 29.98 in Calm   1.0 mph 85 % 0.00 in
23:44 78.1 °F 73.6 °F 29.97 in SSE 1.0 mph 1.0 mph 86 % 0.00 in
23:49 78.1 °F 73.6 °F 29.97 in Calm   1.0 mph 86 % 0.00 in
23:54 77.7 °F 73.6 °F 29.97 in Calm   1.0 mph 87 % 0.00 in
23:59 77.5 °F 73.4 °F 29.97 in Calm   1.0 mph 87 % 0.00 in
Spring, Texas: Villages of Bridgestone
Compliments of Weather Underground - 2.75 mb

Script developed by  Jim McMurry - jmcmurry@mwt.net Adapted for the template by  Wim van der Kuil - Leuven-Template.eu

You find our weather info also at:

UK Metoffice

WeatherCloud

Weather Underground

Mid-South Weather Network

AWEKAS

Citizen Weather Observer Program (CWOP)

HAMweather, WeatherForYou, PWS Weather

Equipment we use:

Weather-station
Davis Vantage Vue

Weather-program
Meteohub

Weather-server
Debian 7.9 x86 (Guest)

Provider
DreamHost

Davis Vantage Vue

Meteohub

Debian 7.9 x86 (Guest)

DreamHost